Time;durP1;ratioP1;P1;durP2;ratioP2;P2;SDS_P1;SDS_P2;PMS_P1;PMS_P2;Temp;Humidity;BMP_temperature;BMP_pressure;BME280_temperature;BME280_humidity;BME280_pressure;Samples;Min_cycle;Max_cycle;Signal;HPM_P1;HPM_P2
2021/03/29 00:00:31;;;;;;;16.80;9.27;;;9.10;77.10;;;;;;5029156;28;20041;-73
2021/03/29 00:02:58;;;;;;;15.25;8.10;;;9.10;76.90;;;;;;5021047;28;20365;-74
2021/03/29 00:05:26;;;;;;;18.30;8.73;;;9.10;76.90;;;;;;5026364;28;20061;-77
2021/03/29 00:07:57;;;;;;;15.75;8.68;;;9.20;76.50;;;;;;5016693;28;20037;-74
2021/03/29 00:10:24;;;;;;;14.82;7.45;;;9.20;76.30;;;;;;5002128;28;20042;-75
2021/03/29 00:12:51;;;;;;;18.52;8.43;;;9.20;76.10;;;;;;5006487;28;20529;-76
2021/03/29 00:15:29;;;;;;;14.48;7.18;;;9.30;75.90;;;;;;4992593;28;20046;-74
2021/03/29 00:17:55;;;;;;;15.50;7.35;;;9.30;75.60;;;;;;5002389;28;20050;-75
2021/03/29 00:20:28;;;;;;;16.52;8.60;;;9.30;75.40;;;;;;5040742;28;20379;-75
2021/03/29 00:22:58;;;;;;;15.32;7.53;;;9.30;75.30;;;;;;5013779;28;20044;-74
2021/03/29 00:25:25;;;;;;;13.68;7.30;;;9.30;75.10;;;;;;5019850;28;20049;-74
2021/03/29 00:27:51;;;;;;;13.38;6.95;;;9.40;75.10;;;;;;5022058;28;20516;-72
2021/03/29 00:30:37;;;;;;;16.75;7.45;;;9.40;74.90;;;;;;5005123;28;20137;-74
2021/03/29 00:33:07;;;;;;;17.55;7.20;;;9.40;75.00;;;;;;5005302;28;20053;-77
2021/03/29 00:35:35;;;;;;;14.60;6.60;;;9.40;74.70;;;;;;5007223;28;20037;-74
2021/03/29 00:38:03;;;;;;;16.20;7.35;;;9.30;74.70;;;;;;5006932;28;20046;-79
2021/03/29 00:40:29;;;;;;;12.77;6.50;;;9.30;74.80;;;;;;5000670;28;20042;-76
2021/03/29 00:43:16;;;;;;;13.55;7.30;;;9.30;74.60;;;;;;4999848;28;20117;-73
2021/03/29 00:45:45;;;;;;;15.60;6.63;;;9.30;74.40;;;;;;5021283;28;20068;-72
2021/03/29 00:48:12;;;;;;;13.68;6.97;;;9.40;74.40;;;;;;5025807;28;20041;-78
2021/03/29 00:50:42;;;;;;;16.77;6.65;;;9.40;74.30;;;;;;5026058;28;20091;-80
2021/03/29 00:53:09;;;;;;;14.68;6.10;;;9.30;74.30;;;;;;5016356;28;20033;-77
2021/03/29 00:55:36;;;;;;;15.32;6.90;;;9.30;74.30;;;;;;5020359;28;20069;-75
2021/03/29 00:58:02;;;;;;;19.05;6.88;;;9.30;74.40;;;;;;5020336;28;20025;-75
2021/03/29 01:00:51;;;;;;;12.88;6.00;;;9.30;74.30;;;;;;5022738;28;20546;-75
2021/03/29 01:03:19;;;;;;;18.55;6.95;;;9.30;74.30;;;;;;5015768;28;20100;-73
2021/03/29 01:05:48;;;;;;;13.57;6.07;;;9.30;74.30;;;;;;5022851;28;20037;-77
2021/03/29 01:08:15;;;;;;;14.35;6.50;;;9.30;74.20;;;;;;5027662;28;20043;-73
2021/03/29 01:10:42;;;;;;;15.00;5.68;;;9.30;74.20;;;;;;5024812;28;20083;-73
2021/03/29 01:13:11;;;;;;;13.98;5.57;;;9.20;74.20;;;;;;5020779;28;20584;-73
2021/03/29 01:15:39;;;;;;;14.40;5.95;;;9.20;74.20;;;;;;5005766;28;20069;-74
2021/03/29 01:18:07;;;;;;;11.50;5.80;;;9.20;74.50;;;;;;5009191;28;20069;-74
2021/03/29 01:20:52;;;;;;;12.77;5.60;;;9.10;74.50;;;;;;5008073;28;20052;-77
2021/03/29 01:23:19;;;;;;;;;;;9.10;74.50;;;;;;5022201;28;20040;-78
2021/03/29 01:25:51;;;;;;;11.77;5.05;;;9.10;74.50;;;;;;5033392;28;19922;-73
2021/03/29 01:28:21;;;;;;;14.20;6.05;;;9.20;74.50;;;;;;5011988;28;20041;-76
2021/03/29 01:30:48;;;;;;;14.65;5.32;;;9.10;74.40;;;;;;5013596;28;20049;-75
2021/03/29 01:33:15;;;;;;;16.52;5.43;;;9.20;74.40;;;;;;5012784;28;20384;-74
2021/03/29 01:35:44;;;;;;;12.52;5.28;;;9.20;74.40;;;;;;5021347;28;20119;-79
2021/03/29 01:38:10;;;;;;;10.07;4.55;;;9.20;74.40;;;;;;5022084;28;20037;-72
2021/03/29 01:40:38;;;;;;;12.00;5.22;;;9.10;74.30;;;;;;5019600;28;20498;-73
2021/03/29 01:43:06;;;;;;;12.35;5.05;;;9.10;74.40;;;;;;5017443;28;20036;-75
2021/03/29 01:45:33;;;;;;;11.95;5.22;;;9.10;74.50;;;;;;5020658;28;20038;-73
2021/03/29 01:48:01;;;;;;;13.88;5.18;;;9.10;74.50;;;;;;5026920;28;20489;-74
2021/03/29 01:50:31;;;;;;;11.50;5.13;;;9.10;74.40;;;;;;5016889;28;20064;-76
2021/03/29 01:52:58;;;;;;;16.15;5.35;;;9.10;74.50;;;;;;5014140;28;20060;-79
2021/03/29 01:55:27;;;;;;;13.55;5.32;;;9.10;74.50;;;;;;5022240;28;20111;-76
2021/03/29 01:57:53;;;;;;;11.05;5.28;;;9.10;74.70;;;;;;5020865;28;20038;-73
2021/03/29 02:00:30;;;;;;;16.33;5.55;;;9.10;74.70;;;;;;5022278;28;20381;-74
2021/03/29 02:02:57;;;;;;;11.77;4.50;;;9.10;74.60;;;;;;5016680;28;20393;-74
2021/03/29 02:05:23;;;;;;;12.15;5.57;;;9.10;74.60;;;;;;5038023;28;20427;-74
2021/03/29 02:07:50;;;;;;;13.25;4.90;;;9.10;74.90;;;;;;5017409;28;20045;-74
2021/03/29 02:10:24;;;;;;;10.80;5.30;;;9.10;75.00;;;;;;5016206;28;20341;-73
2021/03/29 02:12:51;;;;;;;31.67;6.28;;;9.10;75.00;;;;;;5012030;28;21196;-73
2021/03/29 02:15:25;;;;;;;12.50;5.00;;;9.10;75.00;;;;;;5006984;28;20073;-73
2021/03/29 02:17:56;;;;;;;11.60;5.03;;;9.10;75.00;;;;;;4991555;28;20030;-75
2021/03/29 02:20:26;;;;;;;11.85;4.53;;;9.10;75.00;;;;;;4995833;28;20104;-75
2021/03/29 02:22:53;;;;;;;11.48;4.57;;;9.00;75.10;;;;;;4997606;28;20073;-73
2021/03/29 02:25:23;;;;;;;13.85;4.55;;;9.00;75.20;;;;;;5001988;28;20038;-73
2021/03/29 02:27:53;;;;;;;12.27;5.50;;;9.00;75.00;;;;;;5002226;28;20037;-74
2021/03/29 02:30:23;;;;;;;11.50;4.85;;;9.10;75.10;;;;;;5017953;28;20060;-74
2021/03/29 02:32:49;;;;;;;12.10;4.95;;;9.00;75.20;;;;;;5024436;28;20041;-73
2021/03/29 02:35:18;;;;;;;15.32;5.55;;;9.00;75.30;;;;;;5020038;28;20472;-73
2021/03/29 02:37:46;;;;;;;11.75;4.80;;;9.10;75.20;;;;;;5026144;28;20034;-73
2021/03/29 02:40:13;;;;;;;15.65;5.25;;;9.10;75.20;;;;;;5022121;28;20084;-73
2021/03/29 02:42:41;;;;;;;11.32;4.97;;;9.00;75.30;;;;;;5025339;28;20045;-74
2021/03/29 02:45:09;;;;;;;10.20;4.78;;;9.00;75.60;;;;;;5024963;28;20128;-73
2021/03/29 02:47:38;;;;;;;14.52;5.50;;;8.80;75.70;;;;;;5026752;28;20064;-74
2021/03/29 02:50:09;;;;;;;14.63;5.03;;;8.90;75.80;;;;;;5023844;28;20041;-75
2021/03/29 02:52:35;;;;;;;12.32;5.15;;;8.80;75.90;;;;;;5026728;28;20401;-76
2021/03/29 02:55:01;;;;;;;11.63;4.70;;;8.80;75.90;;;;;;5017342;28;20041;-81
2021/03/29 02:57:27;;;;;;;9.95;4.80;;;8.80;76.10;;;;;;5018463;28;20045;-73
2021/03/29 02:59:54;;;;;;;12.73;4.95;;;8.80;76.00;;;;;;5025018;28;20488;-76
2021/03/29 03:02:21;;;;;;;13.55;4.80;;;8.70;76.00;;;;;;5022395;28;20033;-73
2021/03/29 03:04:48;;;;;;;11.63;4.97;;;8.70;76.10;;;;;;5025161;28;20049;-73
2021/03/29 03:07:14;;;;;;;11.73;5.22;;;8.70;76.30;;;;;;5019106;28;20405;-73
2021/03/29 03:09:41;;;;;;;11.13;5.13;;;8.60;76.40;;;;;;5022488;28;20030;-74
2021/03/29 03:12:09;;;;;;;12.43;4.72;;;8.60;76.50;;;;;;5024354;28;20033;-73
2021/03/29 03:14:35;;;;;;;13.25;5.30;;;8.60;76.50;;;;;;5019730;28;20046;-75
2021/03/29 03:17:01;;;;;;;11.80;4.90;;;8.60;76.50;;;;;;5024485;28;20036;-75
2021/03/29 03:19:27;;;;;;;14.82;5.13;;;8.60;76.70;;;;;;5026689;28;20427;-73
2021/03/29 03:21:52;;;;;;;12.10;4.55;;;8.60;76.90;;;;;;5020441;28;20038;-73
2021/03/29 03:24:18;;;;;;;12.85;4.97;;;8.50;76.80;;;;;;5021497;28;20568;-76
2021/03/29 03:26:44;;;;;;;11.30;4.97;;;8.50;76.80;;;;;;5026728;28;20503;-74
2021/03/29 03:29:10;;;;;;;12.05;5.03;;;8.50;77.10;;;;;;5022029;28;20048;-75
2021/03/29 03:31:36;;;;;;;11.35;5.15;;;8.50;77.10;;;;;;5020010;28;20042;-74
2021/03/29 03:34:02;;;;;;;13.20;4.97;;;8.40;77.30;;;;;;5023885;28;20029;-73
2021/03/29 03:36:29;;;;;;;14.35;4.93;;;8.50;77.30;;;;;;5008528;28;20034;-78
2021/03/29 03:38:56;;;;;;;13.20;5.32;;;8.50;77.30;;;;;;5004359;28;20531;-76
2021/03/29 03:41:31;;;;;;;12.43;4.95;;;8.40;77.50;;;;;;5009733;28;20052;-74
2021/03/29 03:43:59;;;;;;;12.75;4.97;;;8.40;77.70;;;;;;5014354;28;20065;-78
2021/03/29 03:46:37;;;;;;;10.85;4.63;;;8.40;77.70;;;;;;5030117;28;20052;-74
2021/03/29 03:49:30;;;;;;;12.25;5.30;;;8.40;77.80;;;;;;5021767;28;20568;-76
2021/03/29 03:51:57;;;;;;;11.75;4.90;;;8.40;77.80;;;;;;5022898;28;20049;-72
2021/03/29 03:54:23;;;;;;;13.98;5.40;;;8.40;77.80;;;;;;5023287;28;20117;-74
2021/03/29 03:56:50;;;;;;;13.35;5.85;;;8.40;77.60;;;;;;5021204;28;20255;-72
2021/03/29 03:59:16;;;;;;;14.68;6.28;;;8.40;77.80;;;;;;5017555;28;20045;-72
2021/03/29 04:02:07;;;;;;;10.63;6.18;;;8.40;77.80;;;;;;5031752;28;20040;-73
2021/03/29 04:04:34;;;;;;;14.15;5.32;;;8.40;77.80;;;;;;5022266;28;20042;-73
2021/03/29 04:07:00;;;;;;;13.73;5.82;;;8.50;77.80;;;;;;5020958;28;20125;-72
2021/03/29 04:09:51;;;;;;;12.90;6.22;;;8.40;77.80;;;;;;5014609;28;20033;-74
2021/03/29 04:12:17;;;;;;;12.52;6.22;;;8.40;78.00;;;;;;4993464;28;20034;-73
2021/03/29 04:14:42;;;;;;;14.18;6.47;;;8.30;78.00;;;;;;4994955;28;20034;-74
2021/03/29 04:17:08;;;;;;;12.15;5.95;;;8.30;78.10;;;;;;5005504;28;20031;-76
2021/03/29 04:19:34;;;;;;;13.05;5.97;;;8.30;78.20;;;;;;5006800;28;20040;-74
2021/03/29 04:22:00;;;;;;;13.48;5.32;;;8.20;78.40;;;;;;4994308;28;20401;-74
2021/03/29 04:24:26;;;;;;;17.42;5.38;;;8.20;78.30;;;;;;5018542;28;20041;-72
2021/03/29 04:26:51;;;;;;;12.98;5.18;;;8.10;78.40;;;;;;5024359;28;20056;-75
2021/03/29 04:29:17;;;;;;;15.90;5.30;;;8.10;78.60;;;;;;5020421;28;20044;-74
2021/03/29 04:31:43;;;;;;;11.55;5.22;;;8.00;78.60;;;;;;5014136;28;20546;-75
2021/03/29 04:34:08;;;;;;;10.95;5.47;;;8.00;78.80;;;;;;5012848;28;20037;-75
2021/03/29 04:36:34;;;;;;;14.00;5.65;;;7.90;78.90;;;;;;5022858;28;20424;-78
2021/03/29 04:39:00;;;;;;;11.57;5.00;;;7.80;79.00;;;;;;5010835;28;20125;-73
2021/03/29 04:41:26;;;;;;;13.40;5.05;;;7.80;79.00;;;;;;5017935;28;20038;-74
2021/03/29 04:43:51;;;;;;;15.57;5.47;;;7.70;79.20;;;;;;5019532;28;20416;-73
2021/03/29 04:46:17;;;;;;;12.18;5.30;;;7.70;79.40;;;;;;5024673;28;20045;-73
2021/03/29 04:48:43;;;;;;;13.85;6.20;;;7.70;79.40;;;;;;5025540;28;20080;-76
2021/03/29 04:51:08;;;;;;;12.65;5.60;;;7.70;79.40;;;;;;5011778;28;20036;-74
2021/03/29 04:53:34;;;;;;;13.65;5.45;;;7.60;79.60;;;;;;5023448;28;20042;-74
2021/03/29 04:56:00;;;;;;;11.50;5.05;;;7.60;79.70;;;;;;5014188;28;20562;-74
2021/03/29 04:58:26;;;;;;;12.65;5.95;;;7.60;79.90;;;;;;5033353;28;20037;-73
2021/03/29 05:00:52;;;;;;;16.15;5.97;;;7.50;79.70;;;;;;5016720;28;20366;-77
2021/03/29 05:03:17;;;;;;;15.57;5.85;;;7.50;79.70;;;;;;5021660;28;20030;-73
2021/03/29 05:05:43;;;;;;;17.08;5.95;;;7.50;79.90;;;;;;5023562;28;20045;-74
2021/03/29 05:08:08;;;;;;;13.23;5.70;;;7.50;79.90;;;;;;5025817;28;20033;-73
2021/03/29 05:10:39;;;;;;;13.73;5.78;;;7.50;80.10;;;;;;5020329;28;20042;-73
2021/03/29 05:13:05;;;;;;;12.93;5.65;;;7.40;80.30;;;;;;5011254;28;20108;-75
2021/03/29 05:15:30;;;;;;;12.52;5.82;;;7.40;80.40;;;;;;5001704;28;20069;-74
2021/03/29 05:17:56;;;;;;;13.15;6.43;;;7.30;80.50;;;;;;4998528;28;20501;-74
2021/03/29 05:20:22;;;;;;;14.13;6.20;;;7.30;80.90;;;;;;5000559;28;20030;-73
2021/03/29 05:22:47;;;;;;;10.73;5.68;;;7.30;80.80;;;;;;5000603;28;20476;-73
2021/03/29 05:25:13;;;;;;;12.68;5.82;;;7.40;80.90;;;;;;5003432;28;20038;-72
2021/03/29 05:27:39;;;;;;;12.27;6.13;;;7.40;80.90;;;;;;5007639;28;20048;-77
2021/03/29 05:30:06;;;;;;;15.73;6.47;;;7.40;81.00;;;;;;5011372;28;20532;-72
2021/03/29 05:32:32;;;;;;;13.15;5.80;;;7.40;80.80;;;;;;4995761;28;20054;-77
2021/03/29 05:35:00;;;;;;;12.13;5.35;;;7.50;80.70;;;;;;5015278;28;20079;-74
2021/03/29 05:37:28;;;;;;;15.45;5.68;;;7.40;80.70;;;;;;5016566;28;20065;-74
2021/03/29 05:39:56;;;;;;;12.70;6.63;;;7.50;80.70;;;;;;5018761;28;20111;-75
2021/03/29 05:42:23;;;;;;;16.25;6.90;;;7.50;80.70;;;;;;5027157;28;20037;-74
2021/03/29 05:44:52;;;;;;;17.48;6.78;;;7.50;80.60;;;;;;5027829;28;20029;-74
2021/03/29 05:47:18;;;;;;;15.00;5.90;;;7.60;80.50;;;;;;5026129;28;20037;-76
2021/03/29 05:49:44;;;;;;;15.90;6.13;;;7.60;80.40;;;;;;5029666;28;20034;-74
2021/03/29 05:52:10;;;;;;;15.27;6.00;;;7.60;80.50;;;;;;5030461;28;20384;-74
2021/03/29 05:54:37;;;;;;;15.52;6.00;;;7.60;80.40;;;;;;5028317;28;20029;-74
2021/03/29 05:57:03;;;;;;;15.02;6.65;;;7.70;80.50;;;;;;5026710;28;20488;-74
2021/03/29 06:01:58;;;;;;;12.23;5.50;;;7.80;80.20;;;;;;5019938;28;20653;-74
2021/03/29 06:04:42;;;;;;;12.55;5.88;;;7.90;80.00;;;;;;5017926;28;20128;-79
2021/03/29 06:07:18;;;;;;;15.60;5.82;;;7.90;79.90;;;;;;5023427;28;20124;-74
2021/03/29 06:09:46;;;;;;;12.27;5.65;;;8.00;79.80;;;;;;5025017;28;20044;-76
2021/03/29 06:12:13;;;;;;;13.32;6.30;;;8.00;79.70;;;;;;5024867;28;20033;-74
2021/03/29 06:14:39;;;;;;;14.68;5.55;;;8.10;79.60;;;;;;5021057;28;20033;-75
2021/03/29 06:17:09;;;;;;;13.95;6.15;;;8.10;79.30;;;;;;5022102;28;20041;-73
2021/03/29 06:19:38;;;;;;;15.38;5.93;;;8.10;79.30;;;;;;5024691;28;20042;-74
2021/03/29 06:22:14;;;;;;;11.30;5.55;;;8.20;79.10;;;;;;5021484;28;20376;-74
2021/03/29 06:25:01;;;;;;;15.35;6.13;;;8.30;78.90;;;;;;5025501;28;20076;-73
2021/03/29 06:27:40;;;;;;;12.95;6.95;;;8.30;78.80;;;;;;5018999;28;20049;-74
2021/03/29 06:30:14;;;;;;;18.85;5.88;;;8.40;78.50;;;;;;5020183;28;20057;-74
2021/03/29 06:32:56;;;;;;;21.10;6.80;;;8.50;78.60;;;;;;5021807;28;20475;-73
2021/03/29 06:35:42;;;;;;;15.80;6.03;;;8.50;78.20;;;;;;5022174;28;20080;-74
2021/03/29 06:38:09;;;;;;;14.07;6.18;;;8.60;78.10;;;;;;5020914;28;20045;-75
2021/03/29 06:40:37;;;;;;;11.57;5.60;;;8.60;78.20;;;;;;5022199;28;20073;-73
2021/03/29 06:43:16;;;;;;;19.63;6.50;;;8.70;77.90;;;;;;5027710;28;20117;-74
2021/03/29 06:45:42;;;;;;;13.60;5.97;;;8.70;77.80;;;;;;5020512;28;20136;-78
2021/03/29 06:48:22;;;;;;;17.02;5.78;;;8.80;77.60;;;;;;5024715;28;20236;-74
2021/03/29 06:51:05;;;;;;;13.75;5.93;;;9.00;77.20;;;;;;5014209;28;20026;-74
2021/03/29 06:53:30;;;;;;;13.07;6.50;;;9.00;76.90;;;;;;5015876;28;20138;-74
2021/03/29 06:55:57;;;;;;;15.00;6.30;;;9.10;76.80;;;;;;5022381;28;20124;-74
2021/03/29 06:58:27;;;;;;;12.68;6.20;;;9.10;76.50;;;;;;5019251;28;20045;-74
2021/03/29 07:00:56;;;;;;;11.02;5.22;;;9.20;76.20;;;;;;5019271;28;20034;-73
2021/03/29 07:03:23;;;;;;;17.38;6.78;;;9.30;76.10;;;;;;5014058;28;20029;-74
2021/03/29 07:05:49;;;;;;;14.23;6.20;;;9.40;75.90;;;;;;5018020;28;20620;-73
2021/03/29 07:08:17;;;;;;;15.63;6.30;;;9.50;75.60;;;;;;5016445;28;20030;-71
2021/03/29 07:10:42;;;;;;;14.15;6.10;;;9.60;75.30;;;;;;5017149;28;20053;-70
2021/03/29 07:13:09;;;;;;;16.85;6.40;;;9.70;74.90;;;;;;5017263;28;20210;-71
2021/03/29 07:15:36;;;;;;;15.30;6.30;;;9.80;74.50;;;;;;5016391;28;20041;-72
2021/03/29 07:18:03;;;;;;;15.88;6.13;;;9.90;74.40;;;;;;5016798;28;20384;-71
2021/03/29 07:20:31;;;;;;;13.82;6.95;;;10.00;74.10;;;;;;5006854;28;20027;-71
2021/03/29 07:22:57;;;;;;;10.95;6.03;;;10.10;73.90;;;;;;4992324;28;20042;-71
2021/03/29 07:25:30;;;;;;;16.13;6.13;;;10.20;74.00;;;;;;5005656;28;20034;-70
2021/03/29 07:27:58;;;;;;;12.20;5.68;;;10.30;73.30;;;;;;4997423;28;20516;-71
2021/03/29 07:30:49;;;;;;;12.45;5.88;;;10.40;73.10;;;;;;5003332;28;20120;-73
2021/03/29 07:33:16;;;;;;;16.58;6.05;;;10.60;72.60;;;;;;5017991;28;20057;-72
2021/03/29 07:35:53;;;;;;;12.60;5.95;;;10.60;72.40;;;;;;5016092;28;20034;-71
2021/03/29 07:38:23;;;;;;;12.63;5.72;;;10.80;72.30;;;;;;5018022;28;20037;-71
2021/03/29 07:40:59;;;;;;;15.73;6.35;;;10.90;71.50;;;;;;5018322;28;20030;-71
2021/03/29 07:43:26;;;;;;;12.65;5.78;;;11.10;70.90;;;;;;5016330;28;20033;-71
2021/03/29 07:45:55;;;;;;;15.60;5.82;;;11.20;70.60;;;;;;5010440;28;20053;-72
2021/03/29 07:48:35;;;;;;;17.10;5.57;;;11.40;69.80;;;;;;5000704;28;20102;-71
2021/03/29 07:51:03;;;;;;;13.35;5.90;;;11.50;69.80;;;;;;5007735;28;20049;-79
2021/03/29 07:54:01;;;;;;;12.10;5.95;;;11.60;68.50;;;;;;5005166;28;20030;-72
2021/03/29 07:56:41;;;;;;;15.57;6.15;;;11.80;68.30;;;;;;4992867;28;20038;-72
2021/03/29 07:59:07;;;;;;;12.63;6.28;;;11.90;68.20;;;;;;4997874;28;20046;-72
2021/03/29 08:02:02;;;;;;;16.30;6.03;;;12.10;67.80;;;;;;5002038;28;20477;-71
2021/03/29 08:05:06;;;;;;;13.38;5.70;;;12.40;66.70;;;;;;5008396;28;20385;-71
2021/03/29 08:07:40;;;;;;;13.60;5.82;;;12.60;66.60;;;;;;5013015;28;20053;-71
2021/03/29 08:10:12;;;;;;;15.20;6.50;;;12.70;65.70;;;;;;5020636;28;20025;-71
2021/03/29 08:12:59;;;;;;;14.10;6.10;;;12.80;65.00;;;;;;5036199;28;20388;-71
2021/03/29 08:15:59;;;;;;;17.95;7.25;;;12.90;65.00;;;;;;5020096;28;20025;-71
2021/03/29 08:18:25;;;;;;;17.58;5.85;;;13.10;64.60;;;;;;5021932;28;20108;-71
2021/03/29 08:20:54;;;;;;;14.70;6.75;;;13.20;63.70;;;;;;5016457;28;20134;-73
2021/03/29 08:23:36;;;;;;;14.68;6.82;;;13.40;63.90;;;;;;5013334;28;20126;-72
2021/03/29 08:26:17;;;;;;;14.35;5.47;;;13.60;63.10;;;;;;5014103;28;20129;-73
2021/03/29 08:29:08;;;;;;;15.50;6.47;;;13.70;61.90;;;;;;5036499;28;20460;-74
2021/03/29 08:32:10;;;;;;;16.90;5.80;;;13.60;61.80;;;;;;5031408;28;20036;-71
2021/03/29 08:35:12;;;;;;;15.40;5.70;;;13.90;61.80;;;;;;5022206;28;20107;-71
2021/03/29 08:37:47;;;;;;;13.23;5.50;;;14.20;61.10;;;;;;5020390;28;20039;-71
2021/03/29 08:40:17;;;;;;;13.57;5.40;;;14.40;60.50;;;;;;5022308;28;20112;-72
2021/03/29 08:42:45;;;;;;;15.82;6.18;;;14.40;60.30;;;;;;5023127;28;20033;-74
2021/03/29 08:45:24;;;;;;;13.07;5.47;;;14.60;60.00;;;;;;5013276;28;20034;-72
2021/03/29 08:47:53;;;;;;;14.48;5.75;;;14.80;58.70;;;;;;4993569;28;20124;-71
2021/03/29 08:50:24;;;;;;;13.20;5.05;;;15.00;58.40;;;;;;5000595;28;20041;-72
2021/03/29 08:53:04;;;;;;;16.20;4.63;;;15.10;57.20;;;;;;5001621;28;20171;-71
2021/03/29 08:55:35;;;;;;;11.48;4.93;;;15.10;56.50;;;;;;5014562;28;20495;-72
2021/03/29 08:58:01;;;;;;;12.63;4.78;;;15.30;56.40;;;;;;4995156;28;20026;-73
2021/03/29 09:00:37;;;;;;;9.32;4.32;;;15.50;55.30;;;;;;4999381;28;20037;-71
2021/03/29 09:03:03;;;;;;;11.23;4.10;;;15.50;53.70;;;;;;4995728;28;20558;-72
2021/03/29 09:05:29;;;;;;;19.00;4.68;;;15.60;52.50;;;;;;4998745;28;20563;-72
2021/03/29 09:07:55;;;;;;;10.52;4.10;;;15.60;51.70;;;;;;4997864;28;20057;-71
2021/03/29 09:10:27;;;;;;;12.13;4.30;;;15.70;50.70;;;;;;4999237;28;20120;-71
2021/03/29 09:12:59;;;;;;;12.70;3.90;;;15.80;49.60;;;;;;5016284;28;20037;-71
2021/03/29 09:15:30;;;;;;;10.25;4.32;;;15.80;50.20;;;;;;5013648;28;20065;-73
2021/03/29 09:18:03;;;;;;;11.38;3.90;;;15.90;51.60;;;;;;5012378;28;20040;-71
2021/03/29 09:20:32;;;;;;;11.38;4.35;;;16.10;51.00;;;;;;5023306;28;20056;-72
2021/03/29 09:22:58;;;;;;;10.45;3.78;;;16.40;49.00;;;;;;5015570;28;20400;-72
2021/03/29 09:25:39;;;;;;;12.55;4.30;;;16.40;48.40;;;;;;5021586;28;20585;-72
2021/03/29 09:28:22;;;;;;;11.07;4.22;;;16.50;47.70;;;;;;5023898;28;20397;-73
2021/03/29 09:30:54;;;;;;;13.68;4.72;;;16.40;48.00;;;;;;5023083;28;20124;-73
2021/03/29 09:33:21;;;;;;;9.88;3.83;;;16.30;48.40;;;;;;5017629;28;20041;-72
2021/03/29 09:35:48;;;;;;;11.20;4.40;;;16.60;48.10;;;;;;5023290;28;20188;-73
2021/03/29 09:38:15;;;;;;;13.43;4.22;;;16.80;47.70;;;;;;5024447;28;20041;-73
2021/03/29 09:40:41;;;;;;;15.05;5.03;;;16.90;46.70;;;;;;5022324;28;20124;-72
2021/03/29 09:43:20;;;;;;;10.40;3.55;;;17.00;46.40;;;;;;5028629;28;20519;-73
2021/03/29 09:45:46;;;;;;;13.00;4.20;;;16.90;46.30;;;;;;5023196;28;20029;-71
2021/03/29 09:48:12;;;;;;;12.02;3.85;;;16.80;46.20;;;;;;5022715;28;20038;-74
2021/03/29 09:50:46;;;;;;;11.02;3.83;;;17.10;46.90;;;;;;5018978;28;20052;-73
2021/03/29 09:53:13;;;;;;;10.93;3.83;;;17.30;45.90;;;;;;5022866;28;20124;-72
2021/03/29 09:55:40;;;;;;;12.85;4.53;;;17.30;45.40;;;;;;5026973;28;20113;-71
2021/03/29 09:58:17;;;;;;;10.15;3.92;;;17.30;45.30;;;;;;5009264;28;20033;-74
2021/03/29 10:00:42;;;;;;;11.50;4.30;;;17.40;44.20;;;;;;5020891;28;20480;-71
2021/03/29 10:03:08;;;;;;;12.15;4.28;;;17.10;45.10;;;;;;5022747;28;20029;-72
2021/03/29 10:05:36;;;;;;;10.15;3.95;;;17.10;46.10;;;;;;5024238;28;20053;-75
2021/03/29 10:08:01;;;;;;;9.80;3.72;;;17.40;43.10;;;;;;5023976;28;20033;-74
2021/03/29 10:10:30;;;;;;;10.57;4.43;;;17.60;42.90;;;;;;5017473;28;20408;-73
2021/03/29 10:13:12;;;;;;;9.63;3.88;;;17.70;42.50;;;;;;5015879;28;20030;-74
2021/03/29 10:15:40;;;;;;;9.48;3.67;;;18.00;42.40;;;;;;5019031;28;20116;-73
2021/03/29 10:18:07;;;;;;;8.10;3.35;;;18.10;42.90;;;;;;5006876;28;20038;-73
2021/03/29 10:20:40;;;;;;;11.35;3.60;;;18.40;41.30;;;;;;5020842;28;20041;-72
2021/03/29 10:23:23;;;;;;;10.73;3.58;;;18.60;39.90;;;;;;5017524;28;20670;-73
2021/03/29 10:26:15;;;;;;;10.55;3.13;;;18.40;39.60;;;;;;5033537;28;20043;-74
2021/03/29 10:28:52;;;;;;;8.50;3.13;;;18.50;37.90;;;;;;4995716;28;20432;-73
2021/03/29 10:31:18;;;;;;;7.63;3.33;;;18.70;38.20;;;;;;5007427;28;20093;-74
2021/03/29 10:33:43;;;;;;;9.43;2.80;;;18.40;37.60;;;;;;5022593;28;20037;-73
2021/03/29 10:36:28;;;;;;;11.82;3.28;;;18.50;38.00;;;;;;5019329;28;20061;-71
2021/03/29 10:38:55;;;;;;;8.18;3.38;;;18.60;38.40;;;;;;5027002;28;20065;-72
2021/03/29 10:41:21;;;;;;;8.20;3.10;;;18.80;37.90;;;;;;5035839;28;20103;-72
2021/03/29 10:43:48;;;;;;;7.57;2.60;;;18.90;36.80;;;;;;5032269;28;20401;-71
2021/03/29 10:46:14;;;;;;;9.20;2.95;;;19.00;36.60;;;;;;5023082;28;20148;-74
2021/03/29 10:48:39;;;;;;;9.20;3.17;;;19.10;36.10;;;;;;5024359;28;20044;-73
2021/03/29 10:51:06;;;;;;;11.70;2.90;;;19.20;35.40;;;;;;5016131;28;20125;-72
2021/03/29 10:53:33;;;;;;;9.98;3.10;;;19.20;35.80;;;;;;5007057;28;20041;-73
2021/03/29 10:55:58;;;;;;;9.77;3.20;;;19.30;36.70;;;;;;5013286;28;20040;-73
2021/03/29 10:58:24;;;;;;;12.68;3.15;;;19.40;36.20;;;;;;5025841;28;20037;-73
2021/03/29 11:00:50;;;;;;;9.07;3.20;;;19.10;35.60;;;;;;5024013;28;20088;-72
2021/03/29 11:03:16;;;;;;;8.93;3.10;;;19.30;35.50;;;;;;5026619;28;20076;-73
2021/03/29 11:05:41;;;;;;;9.57;2.95;;;19.50;35.20;;;;;;5018270;28;20041;-72
2021/03/29 11:08:07;;;;;;;10.95;3.15;;;19.50;34.80;;;;;;5023916;28;20201;-73
2021/03/29 11:10:33;;;;;;;9.73;3.40;;;19.50;35.70;;;;;;5024802;28;20046;-72
2021/03/29 11:13:03;;;;;;;8.93;2.97;;;19.70;35.90;;;;;;5020642;28;20037;-72
2021/03/29 11:15:31;;;;;;;8.38;3.40;;;20.00;35.10;;;;;;5018803;28;20054;-73
2021/03/29 11:17:57;;;;;;;10.43;3.15;;;20.10;34.50;;;;;;5005808;28;20461;-71
2021/03/29 11:20:23;;;;;;;8.77;2.92;;;20.20;33.90;;;;;;5006277;28;20049;-72
2021/03/29 11:22:48;;;;;;;10.10;3.58;;;19.90;34.00;;;;;;5009599;28;20455;-72
2021/03/29 11:25:15;;;;;;;10.02;3.00;;;20.00;34.50;;;;;;5004162;28;20022;-72
2021/03/29 11:27:41;;;;;;;8.15;3.30;;;20.10;34.20;;;;;;5003787;28;20046;-74
2021/03/29 11:30:09;;;;;;;7.00;2.67;;;20.10;34.30;;;;;;4998707;28;20491;-74
2021/03/29 11:32:36;;;;;;;7.78;2.97;;;20.20;34.30;;;;;;5002215;28;20034;-74
2021/03/29 11:35:04;;;;;;;9.88;3.00;;;20.10;35.00;;;;;;4999149;28;20089;-74
2021/03/29 11:37:30;;;;;;;10.38;3.15;;;20.30;33.90;;;;;;5000869;28;20339;-76
2021/03/29 11:39:55;;;;;;;8.68;2.83;;;20.40;34.00;;;;;;5005813;28;20543;-73
2021/03/29 11:42:21;;;;;;;7.20;2.53;;;20.30;33.70;;;;;;5002248;28;20417;-76
2021/03/29 11:44:46;;;;;;;9.93;3.35;;;20.50;32.70;;;;;;5006468;28;20099;-80
2021/03/29 11:47:12;;;;;;;10.70;3.22;;;20.50;33.70;;;;;;5001745;28;20048;-73
2021/03/29 11:49:38;;;;;;;5.95;2.53;;;20.60;33.50;;;;;;5000818;28;20034;-74
2021/03/29 11:52:04;;;;;;;7.85;2.90;;;20.60;32.80;;;;;;5001673;28;20036;-73
2021/03/29 11:54:30;;;;;;;7.47;3.03;;;20.20;32.20;;;;;;5002183;28;20041;-76
2021/03/29 11:56:55;;;;;;;9.93;2.70;;;20.30;33.00;;;;;;5003663;28;20602;-74
2021/03/29 11:59:23;;;;;;;7.57;3.22;;;20.40;33.20;;;;;;5001450;28;20410;-74
2021/03/29 12:01:54;;;;;;;10.23;3.13;;;20.60;33.50;;;;;;5006759;28;20589;-82
2021/03/29 12:06:53;;;;;;;8.95;2.75;;;20.80;32.80;;;;;;5009322;28;20068;-74
2021/03/29 12:12:05;;;;;;;8.73;3.17;;;20.60;32.70;;;;;;5023112;28;21122;-79
2021/03/29 12:14:40;;;;;;;9.50;3.20;;;20.70;32.50;;;;;;5017280;28;20033;-73
2021/03/29 12:17:10;;;;;;;7.80;3.17;;;21.00;32.90;;;;;;5030008;28;20616;-78
2021/03/29 12:19:37;;;;;;;6.50;3.13;;;21.10;32.50;;;;;;5023290;28;20029;-75
2021/03/29 12:22:18;;;;;;;7.32;3.15;;;21.10;33.10;;;;;;5023614;28;20030;-76
2021/03/29 12:24:47;;;;;;;7.00;3.00;;;21.10;32.70;;;;;;5025823;28;20526;-75
2021/03/29 12:27:14;;;;;;;8.18;3.25;;;21.20;32.40;;;;;;5025508;28;20107;-73
2021/03/29 12:29:43;;;;;;;7.22;2.95;;;21.20;30.50;;;;;;5023225;28;20037;-75
2021/03/29 12:32:13;;;;;;;12.45;3.72;;;21.10;31.00;;;;;;5025186;28;20041;-77
2021/03/29 12:34:47;;;;;;;7.05;3.13;;;21.30;30.50;;;;;;5023898;28;20368;-78
2021/03/29 12:37:17;;;;;;;9.50;3.08;;;21.40;31.90;;;;;;5024604;28;20499;-77
2021/03/29 12:39:47;;;;;;;8.40;2.92;;;21.50;31.40;;;;;;5015845;28;20038;-76
2021/03/29 12:42:18;;;;;;;8.95;3.03;;;21.60;32.30;;;;;;5028534;28;20136;-76
2021/03/29 12:44:44;;;;;;;7.35;3.10;;;21.60;32.00;;;;;;5024604;28;20090;-75
2021/03/29 12:47:12;;;;;;;8.07;3.28;;;21.60;31.80;;;;;;5006435;28;20104;-75
2021/03/29 12:49:38;;;;;;;9.18;3.10;;;21.70;32.00;;;;;;5004693;28;20489;-75
2021/03/29 12:52:04;;;;;;;9.32;3.50;;;21.60;30.80;;;;;;5014862;28;20045;-75
2021/03/29 12:54:32;;;;;;;8.73;3.50;;;21.20;31.20;;;;;;5026122;28;20029;-78
2021/03/29 12:56:59;;;;;;;8.40;3.40;;;21.40;31.50;;;;;;5022232;28;20156;-75
2021/03/29 12:59:26;;;;;;;9.88;3.60;;;21.10;32.60;;;;;;5023003;28;20369;-75
2021/03/29 13:01:53;;;;;;;8.38;3.58;;;21.30;32.50;;;;;;5007630;28;20083;-73
2021/03/29 13:04:42;;;;;;;11.20;3.22;;;21.50;32.80;;;;;;5007773;28;20053;-75
2021/03/29 13:07:30;;;;;;;8.10;3.20;;;21.70;31.70;;;;;;5002980;28;20042;-75